sensor_id;sensor_type;location;lat;lon;timestamp;P1;durP1;ratioP1;P2;durP2;ratioP2
29848;SDS011;16728;50.832;5.590;2024-01-30T00:01:41;9.82;;;7.03;;
29848;SDS011;16728;50.832;5.590;2024-01-30T00:04:44;10.03;;;6.93;;
29848;SDS011;16728;50.832;5.590;2024-01-30T00:07:46;12.45;;;7.55;;
29848;SDS011;16728;50.832;5.590;2024-01-30T00:10:51;9.60;;;7.25;;
29848;SDS011;16728;50.832;5.590;2024-01-30T00:13:53;8.18;;;6.25;;
29848;SDS011;16728;50.832;5.590;2024-01-30T00:16:57;9.60;;;6.47;;
29848;SDS011;16728;50.832;5.590;2024-01-30T00:20:00;13.63;;;6.47;;
29848;SDS011;16728;50.832;5.590;2024-01-30T00:23:02;6.95;;;5.93;;
29848;SDS011;16728;50.832;5.590;2024-01-30T00:26:04;8.40;;;6.72;;
29848;SDS011;16728;50.832;5.590;2024-01-30T00:29:07;7.70;;;6.38;;
29848;SDS011;16728;50.832;5.590;2024-01-30T00:32:09;8.88;;;6.72;;
29848;SDS011;16728;50.832;5.590;2024-01-30T00:35:14;9.70;;;7.38;;
29848;SDS011;16728;50.832;5.590;2024-01-30T00:38:16;9.30;;;6.55;;
29848;SDS011;16728;50.832;5.590;2024-01-30T00:41:18;9.87;;;6.70;;
29848;SDS011;16728;50.832;5.590;2024-01-30T00:44:22;10.32;;;6.78;;
29848;SDS011;16728;50.832;5.590;2024-01-30T00:50:27;8.57;;;5.93;;
29848;SDS011;16728;50.832;5.590;2024-01-30T00:53:29;11.80;;;6.10;;
29848;SDS011;16728;50.832;5.590;2024-01-30T00:56:31;8.40;;;6.32;;
29848;SDS011;16728;50.832;5.590;2024-01-30T00:59:34;9.82;;;6.70;;
29848;SDS011;16728;50.832;5.590;2024-01-30T01:02:37;8.00;;;6.00;;
29848;SDS011;16728;50.832;5.590;2024-01-30T01:05:40;10.90;;;6.50;;
29848;SDS011;16728;50.832;5.590;2024-01-30T01:08:42;9.68;;;6.20;;
29848;SDS011;16728;50.832;5.590;2024-01-30T01:11:45;9.98;;;6.45;;
29848;SDS011;16728;50.832;5.590;2024-01-30T01:14:47;8.52;;;6.10;;
29848;SDS011;16728;50.832;5.590;2024-01-30T01:17:49;9.02;;;5.68;;
29848;SDS011;16728;50.832;5.590;2024-01-30T01:20:52;8.10;;;6.40;;
29848;SDS011;16728;50.832;5.590;2024-01-30T01:23:54;8.32;;;6.00;;
29848;SDS011;16728;50.832;5.590;2024-01-30T01:26:58;8.30;;;5.90;;
29848;SDS011;16728;50.832;5.590;2024-01-30T01:30:04;8.00;;;5.95;;
29848;SDS011;16728;50.832;5.590;2024-01-30T01:33:07;7.97;;;6.20;;
29848;SDS011;16728;50.832;5.590;2024-01-30T01:36:10;8.60;;;5.75;;
29848;SDS011;16728;50.832;5.590;2024-01-30T01:39:13;8.40;;;5.80;;
29848;SDS011;16728;50.832;5.590;2024-01-30T01:42:16;9.30;;;6.07;;
29848;SDS011;16728;50.832;5.590;2024-01-30T01:45:18;7.97;;;5.55;;
29848;SDS011;16728;50.832;5.590;2024-01-30T01:48:22;8.27;;;5.85;;
29848;SDS011;16728;50.832;5.590;2024-01-30T01:51:26;8.17;;;6.00;;
29848;SDS011;16728;50.832;5.590;2024-01-30T01:54:29;10.27;;;6.22;;
29848;SDS011;16728;50.832;5.590;2024-01-30T01:57:31;7.67;;;5.83;;
29848;SDS011;16728;50.832;5.590;2024-01-30T02:00:34;6.72;;;5.82;;
29848;SDS011;16728;50.832;5.590;2024-01-30T02:03:41;8.32;;;5.60;;
29848;SDS011;16728;50.832;5.590;2024-01-30T02:06:43;6.63;;;5.35;;
29848;SDS011;16728;50.832;5.590;2024-01-30T02:09:46;7.95;;;5.63;;
29848;SDS011;16728;50.832;5.590;2024-01-30T02:12:48;7.57;;;5.40;;
29848;SDS011;16728;50.832;5.590;2024-01-30T02:15:51;9.52;;;6.05;;
29848;SDS011;16728;50.832;5.590;2024-01-30T02:18:53;9.38;;;5.55;;
29848;SDS011;16728;50.832;5.590;2024-01-30T02:21:56;6.47;;;5.13;;
29848;SDS011;16728;50.832;5.590;2024-01-30T02:24:58;7.03;;;5.57;;
29848;SDS011;16728;50.832;5.590;2024-01-30T02:28:01;7.23;;;5.90;;
29848;SDS011;16728;50.832;5.590;2024-01-30T02:31:03;7.53;;;5.80;;
29848;SDS011;16728;50.832;5.590;2024-01-30T02:34:05;6.28;;;5.68;;
29848;SDS011;16728;50.832;5.590;2024-01-30T02:37:08;10.43;;;5.88;;
29848;SDS011;16728;50.832;5.590;2024-01-30T02:40:10;5.93;;;5.32;;
29848;SDS011;16728;50.832;5.590;2024-01-30T02:43:12;7.65;;;5.60;;
29848;SDS011;16728;50.832;5.590;2024-01-30T02:46:15;6.50;;;5.50;;
29848;SDS011;16728;50.832;5.590;2024-01-30T02:49:17;6.43;;;5.03;;
29848;SDS011;16728;50.832;5.590;2024-01-30T02:52:20;7.20;;;5.13;;
29848;SDS011;16728;50.832;5.590;2024-01-30T02:55:22;6.28;;;5.03;;
29848;SDS011;16728;50.832;5.590;2024-01-30T02:58:24;6.23;;;5.63;;
29848;SDS011;16728;50.832;5.590;2024-01-30T03:01:27;7.57;;;5.65;;
29848;SDS011;16728;50.832;5.590;2024-01-30T03:04:29;6.78;;;5.32;;
29848;SDS011;16728;50.832;5.590;2024-01-30T03:07:32;6.30;;;4.93;;
29848;SDS011;16728;50.832;5.590;2024-01-30T03:10:35;6.78;;;5.22;;
29848;SDS011;16728;50.832;5.590;2024-01-30T03:13:39;6.30;;;5.15;;
29848;SDS011;16728;50.832;5.590;2024-01-30T03:16:42;9.40;;;5.63;;
29848;SDS011;16728;50.832;5.590;2024-01-30T03:19:44;6.07;;;4.68;;
29848;SDS011;16728;50.832;5.590;2024-01-30T03:22:46;6.78;;;5.18;;
29848;SDS011;16728;50.832;5.590;2024-01-30T03:25:49;6.70;;;5.38;;
29848;SDS011;16728;50.832;5.590;2024-01-30T03:28:51;7.55;;;4.78;;
29848;SDS011;16728;50.832;5.590;2024-01-30T03:31:53;9.02;;;5.72;;
29848;SDS011;16728;50.832;5.590;2024-01-30T03:34:55;6.47;;;5.53;;
29848;SDS011;16728;50.832;5.590;2024-01-30T03:37:59;6.90;;;5.15;;
29848;SDS011;16728;50.832;5.590;2024-01-30T03:41:02;10.18;;;5.32;;
29848;SDS011;16728;50.832;5.590;2024-01-30T03:44:05;6.97;;;5.07;;
29848;SDS011;16728;50.832;5.590;2024-01-30T03:47:08;7.13;;;5.35;;
29848;SDS011;16728;50.832;5.590;2024-01-30T03:50:10;8.48;;;5.63;;
29848;SDS011;16728;50.832;5.590;2024-01-30T03:53:13;7.25;;;5.20;;
29848;SDS011;16728;50.832;5.590;2024-01-30T03:56:15;7.68;;;5.22;;
29848;SDS011;16728;50.832;5.590;2024-01-30T03:59:17;8.88;;;6.20;;
29848;SDS011;16728;50.832;5.590;2024-01-30T04:02:25;5.93;;;5.32;;
29848;SDS011;16728;50.832;5.590;2024-01-30T04:05:27;5.88;;;5.28;;
29848;SDS011;16728;50.832;5.590;2024-01-30T04:08:30;6.97;;;5.43;;
29848;SDS011;16728;50.832;5.590;2024-01-30T04:11:33;7.00;;;5.43;;
29848;SDS011;16728;50.832;5.590;2024-01-30T04:14:37;7.38;;;5.22;;
29848;SDS011;16728;50.832;5.590;2024-01-30T04:17:39;7.18;;;5.70;;
29848;SDS011;16728;50.832;5.590;2024-01-30T04:20:42;6.85;;;5.07;;
29848;SDS011;16728;50.832;5.590;2024-01-30T04:23:44;6.07;;;3.90;;
29848;SDS011;16728;50.832;5.590;2024-01-30T04:26:46;6.40;;;4.97;;
29848;SDS011;16728;50.832;5.590;2024-01-30T04:29:49;7.63;;;5.55;;
29848;SDS011;16728;50.832;5.590;2024-01-30T04:32:51;6.18;;;5.28;;
29848;SDS011;16728;50.832;5.590;2024-01-30T04:35:53;7.70;;;5.43;;
29848;SDS011;16728;50.832;5.590;2024-01-30T04:38:55;8.40;;;5.40;;
29848;SDS011;16728;50.832;5.590;2024-01-30T04:41:58;8.18;;;5.68;;
29848;SDS011;16728;50.832;5.590;2024-01-30T04:45:00;6.68;;;5.10;;
29848;SDS011;16728;50.832;5.590;2024-01-30T04:48:03;19.02;;;14.60;;
29848;SDS011;16728;50.832;5.590;2024-01-30T04:51:06;9.10;;;7.23;;
29848;SDS011;16728;50.832;5.590;2024-01-30T04:54:08;9.48;;;5.47;;
29848;SDS011;16728;50.832;5.590;2024-01-30T04:57:10;7.95;;;5.53;;
29848;SDS011;16728;50.832;5.590;2024-01-30T05:00:13;9.68;;;5.28;;
29848;SDS011;16728;50.832;5.590;2024-01-30T05:03:16;7.28;;;5.35;;
29848;SDS011;16728;50.832;5.590;2024-01-30T05:06:27;9.18;;;5.43;;
29848;SDS011;16728;50.832;5.590;2024-01-30T05:09:30;6.57;;;4.97;;
29848;SDS011;16728;50.832;5.590;2024-01-30T05:12:32;6.35;;;5.25;;
29848;SDS011;16728;50.832;5.590;2024-01-30T05:15:34;5.93;;;4.95;;
29848;SDS011;16728;50.832;5.590;2024-01-30T05:18:37;8.30;;;5.60;;
29848;SDS011;16728;50.832;5.590;2024-01-30T05:21:39;5.65;;;4.80;;
29848;SDS011;16728;50.832;5.590;2024-01-30T05:24:41;7.43;;;4.97;;
29848;SDS011;16728;50.832;5.590;2024-01-30T05:27:44;6.90;;;5.07;;
29848;SDS011;16728;50.832;5.590;2024-01-30T05:30:46;7.43;;;4.93;;
29848;SDS011;16728;50.832;5.590;2024-01-30T05:33:49;7.32;;;5.03;;
29848;SDS011;16728;50.832;5.590;2024-01-30T05:36:52;8.13;;;5.32;;
29848;SDS011;16728;50.832;5.590;2024-01-30T05:39:54;8.45;;;4.90;;
29848;SDS011;16728;50.832;5.590;2024-01-30T05:42:57;6.65;;;5.15;;
29848;SDS011;16728;50.832;5.590;2024-01-30T05:46:04;9.70;;;5.40;;
29848;SDS011;16728;50.832;5.590;2024-01-30T05:49:07;8.13;;;5.20;;
29848;SDS011;16728;50.832;5.590;2024-01-30T05:52:10;7.45;;;5.32;;
29848;SDS011;16728;50.832;5.590;2024-01-30T05:55:12;8.33;;;5.43;;
29848;SDS011;16728;50.832;5.590;2024-01-30T05:58:14;7.07;;;5.10;;
29848;SDS011;16728;50.832;5.590;2024-01-30T06:01:17;8.15;;;5.38;;
29848;SDS011;16728;50.832;5.590;2024-01-30T06:04:19;6.87;;;4.83;;
29848;SDS011;16728;50.832;5.590;2024-01-30T06:07:22;14.73;;;10.75;;
29848;SDS011;16728;50.832;5.590;2024-01-30T06:10:24;7.87;;;6.23;;
29848;SDS011;16728;50.832;5.590;2024-01-30T06:13:27;8.73;;;5.50;;
29848;SDS011;16728;50.832;5.590;2024-01-30T06:16:31;6.20;;;5.10;;
29848;SDS011;16728;50.832;5.590;2024-01-30T06:19:34;7.82;;;5.25;;
29848;SDS011;16728;50.832;5.590;2024-01-30T06:22:36;6.32;;;5.25;;
29848;SDS011;16728;50.832;5.590;2024-01-30T06:25:38;6.70;;;4.95;;
29848;SDS011;16728;50.832;5.590;2024-01-30T06:28:41;8.10;;;5.15;;
29848;SDS011;16728;50.832;5.590;2024-01-30T06:31:43;7.50;;;4.95;;
29848;SDS011;16728;50.832;5.590;2024-01-30T06:34:45;7.50;;;5.03;;
29848;SDS011;16728;50.832;5.590;2024-01-30T06:37:48;5.65;;;4.60;;
29848;SDS011;16728;50.832;5.590;2024-01-30T06:40:50;6.40;;;4.90;;
29848;SDS011;16728;50.832;5.590;2024-01-30T06:43:52;7.63;;;4.85;;
29848;SDS011;16728;50.832;5.590;2024-01-30T06:46:56;8.75;;;5.45;;
29848;SDS011;16728;50.832;5.590;2024-01-30T06:49:58;7.00;;;5.35;;
29848;SDS011;16728;50.832;5.590;2024-01-30T06:53:01;10.10;;;5.90;;
29848;SDS011;16728;50.832;5.590;2024-01-30T06:56:03;7.03;;;5.30;;
29848;SDS011;16728;50.832;5.590;2024-01-30T06:59:06;7.35;;;5.57;;
29848;SDS011;16728;50.832;5.590;2024-01-30T07:02:08;7.00;;;5.28;;
29848;SDS011;16728;50.832;5.590;2024-01-30T07:05:11;9.25;;;5.35;;
29848;SDS011;16728;50.832;5.590;2024-01-30T07:08:15;17.50;;;5.85;;
29848;SDS011;16728;50.832;5.590;2024-01-30T07:11:21;11.00;;;5.82;;
29848;SDS011;16728;50.832;5.590;2024-01-30T07:14:25;9.25;;;5.35;;
29848;SDS011;16728;50.832;5.590;2024-01-30T07:17:27;10.13;;;7.55;;
29848;SDS011;16728;50.832;5.590;2024-01-30T07:20:30;8.15;;;6.50;;
29848;SDS011;16728;50.832;5.590;2024-01-30T07:23:33;9.57;;;6.10;;
29848;SDS011;16728;50.832;5.590;2024-01-30T07:26:36;7.97;;;6.00;;
29848;SDS011;16728;50.832;5.590;2024-01-30T07:29:38;7.13;;;6.10;;
29848;SDS011;16728;50.832;5.590;2024-01-30T07:32:40;11.35;;;6.13;;
29848;SDS011;16728;50.832;5.590;2024-01-30T07:35:43;8.98;;;5.90;;
29848;SDS011;16728;50.832;5.590;2024-01-30T07:38:45;9.97;;;5.50;;
29848;SDS011;16728;50.832;5.590;2024-01-30T07:41:47;10.98;;;6.03;;
29848;SDS011;16728;50.832;5.590;2024-01-30T07:44:49;9.35;;;5.75;;
29848;SDS011;16728;50.832;5.590;2024-01-30T07:47:52;8.63;;;6.50;;
29848;SDS011;16728;50.832;5.590;2024-01-30T07:50:54;11.38;;;6.47;;
29848;SDS011;16728;50.832;5.590;2024-01-30T07:53:57;11.00;;;6.13;;
29848;SDS011;16728;50.832;5.590;2024-01-30T07:57:00;10.10;;;5.88;;
29848;SDS011;16728;50.832;5.590;2024-01-30T08:00:02;8.05;;;5.97;;
29848;SDS011;16728;50.832;5.590;2024-01-30T08:03:05;9.43;;;6.53;;
29848;SDS011;16728;50.832;5.590;2024-01-30T08:06:07;9.95;;;6.18;;
29848;SDS011;16728;50.832;5.590;2024-01-30T08:09:09;13.98;;;6.72;;
29848;SDS011;16728;50.832;5.590;2024-01-30T08:12:12;8.98;;;6.45;;
29848;SDS011;16728;50.832;5.590;2024-01-30T08:15:15;8.85;;;6.22;;
29848;SDS011;16728;50.832;5.590;2024-01-30T08:18:17;8.90;;;6.85;;
29848;SDS011;16728;50.832;5.590;2024-01-30T08:21:19;6.28;;;4.30;;
29848;SDS011;16728;50.832;5.590;2024-01-30T08:24:22;8.63;;;6.75;;
29848;SDS011;16728;50.832;5.590;2024-01-30T08:27:24;10.35;;;6.68;;
29848;SDS011;16728;50.832;5.590;2024-01-30T08:30:26;16.30;;;7.20;;
29848;SDS011;16728;50.832;5.590;2024-01-30T08:33:28;28.92;;;7.97;;
29848;SDS011;16728;50.832;5.590;2024-01-30T08:36:31;41.40;;;10.13;;
29848;SDS011;16728;50.832;5.590;2024-01-30T08:39:33;43.33;;;11.45;;
29848;SDS011;16728;50.832;5.590;2024-01-30T08:42:35;25.95;;;7.97;;
29848;SDS011;16728;50.832;5.590;2024-01-30T08:45:41;18.40;;;7.18;;
29848;SDS011;16728;50.832;5.590;2024-01-30T08:48:44;34.08;;;8.57;;
29848;SDS011;16728;50.832;5.590;2024-01-30T08:51:46;27.65;;;8.20;;
29848;SDS011;16728;50.832;5.590;2024-01-30T08:54:48;24.92;;;7.80;;
29848;SDS011;16728;50.832;5.590;2024-01-30T08:57:51;15.05;;;6.30;;
29848;SDS011;16728;50.832;5.590;2024-01-30T09:00:54;15.15;;;6.25;;
29848;SDS011;16728;50.832;5.590;2024-01-30T09:03:56;13.35;;;6.88;;
29848;SDS011;16728;50.832;5.590;2024-01-30T09:06:59;18.43;;;7.37;;
29848;SDS011;16728;50.832;5.590;2024-01-30T09:10:01;20.03;;;6.50;;
29848;SDS011;16728;50.832;5.590;2024-01-30T09:13:04;10.38;;;5.88;;
29848;SDS011;16728;50.832;5.590;2024-01-30T09:16:06;12.10;;;6.63;;
29848;SDS011;16728;50.832;5.590;2024-01-30T09:19:09;10.68;;;6.20;;
29848;SDS011;16728;50.832;5.590;2024-01-30T09:22:11;9.95;;;6.65;;
29848;SDS011;16728;50.832;5.590;2024-01-30T09:25:13;10.75;;;5.88;;
29848;SDS011;16728;50.832;5.590;2024-01-30T09:28:19;9.60;;;6.22;;
29848;SDS011;16728;50.832;5.590;2024-01-30T09:31:23;13.18;;;7.50;;
29848;SDS011;16728;50.832;5.590;2024-01-30T09:34:25;18.42;;;7.20;;
29848;SDS011;16728;50.832;5.590;2024-01-30T09:37:27;38.55;;;10.23;;
29848;SDS011;16728;50.832;5.590;2024-01-30T09:40:30;40.22;;;11.50;;
29848;SDS011;16728;50.832;5.590;2024-01-30T09:43:32;39.65;;;11.25;;
29848;SDS011;16728;50.832;5.590;2024-01-30T09:46:36;37.47;;;10.05;;
29848;SDS011;16728;50.832;5.590;2024-01-30T09:49:38;32.50;;;9.93;;
29848;SDS011;16728;50.832;5.590;2024-01-30T09:52:41;48.50;;;10.45;;
29848;SDS011;16728;50.832;5.590;2024-01-30T09:55:44;44.45;;;11.27;;
29848;SDS011;16728;50.832;5.590;2024-01-30T09:58:47;36.90;;;11.55;;
29848;SDS011;16728;50.832;5.590;2024-01-30T10:01:50;23.77;;;8.43;;
29848;SDS011;16728;50.832;5.590;2024-01-30T10:04:53;18.30;;;7.90;;
29848;SDS011;16728;50.832;5.590;2024-01-30T10:07:56;21.63;;;8.63;;
29848;SDS011;16728;50.832;5.590;2024-01-30T10:11:00;22.17;;;8.13;;
29848;SDS011;16728;50.832;5.590;2024-01-30T10:14:03;12.15;;;6.80;;
29848;SDS011;16728;50.832;5.590;2024-01-30T10:17:06;14.15;;;6.80;;
29848;SDS011;16728;50.832;5.590;2024-01-30T10:20:21;20.92;;;7.72;;
29848;SDS011;16728;50.832;5.590;2024-01-30T10:23:24;43.67;;;10.25;;
29848;SDS011;16728;50.832;5.590;2024-01-30T10:26:30;21.83;;;8.18;;
29848;SDS011;16728;50.832;5.590;2024-01-30T10:29:35;16.90;;;7.35;;
29848;SDS011;16728;50.832;5.590;2024-01-30T10:35:41;11.13;;;7.15;;
29848;SDS011;16728;50.832;5.590;2024-01-30T10:38:43;46.78;;;9.60;;
29848;SDS011;16728;50.832;5.590;2024-01-30T10:41:47;49.72;;;11.82;;
29848;SDS011;16728;50.832;5.590;2024-01-30T10:47:56;51.20;;;11.23;;
29848;SDS011;16728;50.832;5.590;2024-01-30T10:51:00;15.32;;;6.40;;
29848;SDS011;16728;50.832;5.590;2024-01-30T10:54:05;17.25;;;7.50;;
29848;SDS011;16728;50.832;5.590;2024-01-30T10:57:07;16.05;;;6.95;;
29848;SDS011;16728;50.832;5.590;2024-01-30T11:00:10;12.07;;;7.07;;
29848;SDS011;16728;50.832;5.590;2024-01-30T11:03:14;15.88;;;6.95;;
29848;SDS011;16728;50.832;5.590;2024-01-30T11:06:16;14.60;;;7.67;;
29848;SDS011;16728;50.832;5.590;2024-01-30T11:09:21;15.95;;;7.40;;
29848;SDS011;16728;50.832;5.590;2024-01-30T11:12:24;14.45;;;7.40;;
29848;SDS011;16728;50.832;5.590;2024-01-30T11:15:27;10.90;;;6.82;;
29848;SDS011;16728;50.832;5.590;2024-01-30T11:18:32;13.23;;;7.65;;
29848;SDS011;16728;50.832;5.590;2024-01-30T11:21:39;15.10;;;7.13;;
29848;SDS011;16728;50.832;5.590;2024-01-30T11:24:42;14.18;;;8.30;;
29848;SDS011;16728;50.832;5.590;2024-01-30T11:27:45;12.73;;;7.45;;
29848;SDS011;16728;50.832;5.590;2024-01-30T11:30:48;14.30;;;7.78;;
29848;SDS011;16728;50.832;5.590;2024-01-30T11:33:52;19.30;;;8.25;;
29848;SDS011;16728;50.832;5.590;2024-01-30T11:36:56;14.13;;;8.23;;
29848;SDS011;16728;50.832;5.590;2024-01-30T11:40:01;16.08;;;7.82;;
29848;SDS011;16728;50.832;5.590;2024-01-30T11:43:06;20.48;;;9.00;;
29848;SDS011;16728;50.832;5.590;2024-01-30T11:46:08;29.38;;;9.07;;
29848;SDS011;16728;50.832;5.590;2024-01-30T11:49:11;18.67;;;8.23;;
29848;SDS011;16728;50.832;5.590;2024-01-30T11:52:14;15.43;;;8.37;;
29848;SDS011;16728;50.832;5.590;2024-01-30T11:55:16;15.52;;;8.68;;
29848;SDS011;16728;50.832;5.590;2024-01-30T11:58:19;16.23;;;8.57;;
29848;SDS011;16728;50.832;5.590;2024-01-30T12:01:21;25.48;;;9.63;;
29848;SDS011;16728;50.832;5.590;2024-01-30T12:04:27;15.02;;;9.05;;
29848;SDS011;16728;50.832;5.590;2024-01-30T12:07:29;14.80;;;8.40;;
29848;SDS011;16728;50.832;5.590;2024-01-30T12:10:33;20.30;;;8.95;;
29848;SDS011;16728;50.832;5.590;2024-01-30T12:13:36;20.00;;;8.70;;
29848;SDS011;16728;50.832;5.590;2024-01-30T12:16:38;13.98;;;8.50;;
29848;SDS011;16728;50.832;5.590;2024-01-30T12:19:40;20.08;;;8.75;;
29848;SDS011;16728;50.832;5.590;2024-01-30T12:22:44;19.90;;;8.50;;
29848;SDS011;16728;50.832;5.590;2024-01-30T12:28:48;22.23;;;8.95;;
29848;SDS011;16728;50.832;5.590;2024-01-30T12:31:54;15.25;;;7.93;;
29848;SDS011;16728;50.832;5.590;2024-01-30T12:34:56;14.77;;;7.63;;
29848;SDS011;16728;50.832;5.590;2024-01-30T12:38:02;15.65;;;8.18;;
29848;SDS011;16728;50.832;5.590;2024-01-30T12:41:06;14.85;;;8.07;;
29848;SDS011;16728;50.832;5.590;2024-01-30T12:44:10;15.13;;;7.97;;
29848;SDS011;16728;50.832;5.590;2024-01-30T12:50:17;17.70;;;7.88;;
29848;SDS011;16728;50.832;5.590;2024-01-30T12:53:20;14.18;;;8.35;;
29848;SDS011;16728;50.832;5.590;2024-01-30T12:56:22;13.63;;;8.18;;
29848;SDS011;16728;50.832;5.590;2024-01-30T12:59:25;13.52;;;8.32;;
29848;SDS011;16728;50.832;5.590;2024-01-30T13:02:27;8.93;;;5.63;;
29848;SDS011;16728;50.832;5.590;2024-01-30T13:05:36;11.98;;;8.63;;
29848;SDS011;16728;50.832;5.590;2024-01-30T13:08:39;18.73;;;9.25;;
29848;SDS011;16728;50.832;5.590;2024-01-30T13:11:41;16.38;;;9.20;;
29848;SDS011;16728;50.832;5.590;2024-01-30T13:14:43;11.93;;;8.68;;
29848;SDS011;16728;50.832;5.590;2024-01-30T13:17:45;14.43;;;9.15;;
29848;SDS011;16728;50.832;5.590;2024-01-30T13:20:49;17.10;;;9.93;;
29848;SDS011;16728;50.832;5.590;2024-01-30T13:23:52;14.30;;;8.43;;
29848;SDS011;16728;50.832;5.590;2024-01-30T13:26:55;10.70;;;8.80;;
29848;SDS011;16728;50.832;5.590;2024-01-30T13:29:59;14.93;;;7.55;;
29848;SDS011;16728;50.832;5.590;2024-01-30T13:33:01;11.43;;;6.85;;
29848;SDS011;16728;50.832;5.590;2024-01-30T13:36:04;10.43;;;6.38;;
29848;SDS011;16728;50.832;5.590;2024-01-30T13:39:07;12.13;;;8.23;;
29848;SDS011;16728;50.832;5.590;2024-01-30T13:42:13;14.82;;;6.53;;
29848;SDS011;16728;50.832;5.590;2024-01-30T13:45:16;10.57;;;5.40;;
29848;SDS011;16728;50.832;5.590;2024-01-30T13:48:20;11.77;;;5.57;;
29848;SDS011;16728;50.832;5.590;2024-01-30T13:51:22;9.57;;;5.35;;
29848;SDS011;16728;50.832;5.590;2024-01-30T13:54:25;10.98;;;5.47;;
29848;SDS011;16728;50.832;5.590;2024-01-30T13:57:27;15.32;;;5.35;;
29848;SDS011;16728;50.832;5.590;2024-01-30T14:00:29;10.30;;;4.93;;
29848;SDS011;16728;50.832;5.590;2024-01-30T14:03:32;10.25;;;4.28;;
29848;SDS011;16728;50.832;5.590;2024-01-30T14:06:34;7.38;;;3.53;;
29848;SDS011;16728;50.832;5.590;2024-01-30T14:09:38;8.07;;;3.63;;
29848;SDS011;16728;50.832;5.590;2024-01-30T14:12:43;10.02;;;3.70;;
29848;SDS011;16728;50.832;5.590;2024-01-30T14:15:46;5.03;;;2.45;;
29848;SDS011;16728;50.832;5.590;2024-01-30T14:18:48;5.15;;;2.70;;
29848;SDS011;16728;50.832;5.590;2024-01-30T14:21:50;5.43;;;2.60;;
29848;SDS011;16728;50.832;5.590;2024-01-30T14:24:53;5.57;;;2.38;;
29848;SDS011;16728;50.832;5.590;2024-01-30T14:27:55;5.38;;;3.20;;
29848;SDS011;16728;50.832;5.590;2024-01-30T14:30:57;17.33;;;11.32;;
29848;SDS011;16728;50.832;5.590;2024-01-30T14:34:00;5.88;;;2.80;;
29848;SDS011;16728;50.832;5.590;2024-01-30T14:37:02;3.67;;;2.00;;
29848;SDS011;16728;50.832;5.590;2024-01-30T14:40:05;6.33;;;2.80;;
29848;SDS011;16728;50.832;5.590;2024-01-30T14:43:10;4.20;;;1.60;;
29848;SDS011;16728;50.832;5.590;2024-01-30T14:46:13;3.90;;;1.20;;
29848;SDS011;16728;50.832;5.590;2024-01-30T14:49:15;2.47;;;1.27;;
29848;SDS011;16728;50.832;5.590;2024-01-30T14:52:17;3.70;;;1.20;;
29848;SDS011;16728;50.832;5.590;2024-01-30T14:55:20;2.50;;;1.30;;
29848;SDS011;16728;50.832;5.590;2024-01-30T14:58:22;2.15;;;0.90;;
29848;SDS011;16728;50.832;5.590;2024-01-30T15:01:25;1.20;;;0.93;;
29848;SDS011;16728;50.832;5.590;2024-01-30T15:04:27;3.53;;;1.25;;
29848;SDS011;16728;50.832;5.590;2024-01-30T15:07:30;3.15;;;0.70;;
29848;SDS011;16728;50.832;5.590;2024-01-30T15:10:41;1.45;;;0.80;;
29848;SDS011;16728;50.832;5.590;2024-01-30T15:13:43;3.33;;;1.27;;
29848;SDS011;16728;50.832;5.590;2024-01-30T15:16:46;3.83;;;0.97;;
29848;SDS011;16728;50.832;5.590;2024-01-30T15:19:48;1.53;;;0.97;;
29848;SDS011;16728;50.832;5.590;2024-01-30T15:22:52;1.83;;;1.00;;
29848;SDS011;16728;50.832;5.590;2024-01-30T15:25:54;1.65;;;0.90;;
29848;SDS011;16728;50.832;5.590;2024-01-30T15:28:57;2.50;;;1.05;;
29848;SDS011;16728;50.832;5.590;2024-01-30T15:31:59;2.03;;;0.82;;
29848;SDS011;16728;50.832;5.590;2024-01-30T15:35:01;6.22;;;3.05;;
29848;SDS011;16728;50.832;5.590;2024-01-30T15:38:05;3.65;;;1.50;;
29848;SDS011;16728;50.832;5.590;2024-01-30T15:41:10;4.38;;;0.98;;
29848;SDS011;16728;50.832;5.590;2024-01-30T15:44:12;2.13;;;1.00;;
29848;SDS011;16728;50.832;5.590;2024-01-30T15:47:18;2.92;;;1.02;;
29848;SDS011;16728;50.832;5.590;2024-01-30T15:50:20;2.85;;;1.20;;
29848;SDS011;16728;50.832;5.590;2024-01-30T15:53:23;4.23;;;1.10;;
29848;SDS011;16728;50.832;5.590;2024-01-30T15:56:27;4.05;;;1.30;;
29848;SDS011;16728;50.832;5.590;2024-01-30T15:59:29;3.50;;;1.38;;
29848;SDS011;16728;50.832;5.590;2024-01-30T16:02:32;2.00;;;1.23;;
29848;SDS011;16728;50.832;5.590;2024-01-30T16:05:34;4.60;;;1.30;;
29848;SDS011;16728;50.832;5.590;2024-01-30T16:08:36;5.03;;;1.73;;
29848;SDS011;16728;50.832;5.590;2024-01-30T16:11:39;3.92;;;1.65;;
29848;SDS011;16728;50.832;5.590;2024-01-30T16:14:41;5.03;;;2.13;;
29848;SDS011;16728;50.832;5.590;2024-01-30T16:17:44;5.22;;;1.52;;
29848;SDS011;16728;50.832;5.590;2024-01-30T16:20:46;2.00;;;1.17;;
29848;SDS011;16728;50.832;5.590;2024-01-30T16:23:48;7.38;;;1.70;;
29848;SDS011;16728;50.832;5.590;2024-01-30T16:26:51;3.43;;;1.10;;
29848;SDS011;16728;50.832;5.590;2024-01-30T16:29:53;5.10;;;1.30;;
29848;SDS011;16728;50.832;5.590;2024-01-30T16:32:55;5.03;;;1.60;;
29848;SDS011;16728;50.832;5.590;2024-01-30T16:35:58;6.87;;;1.93;;
29848;SDS011;16728;50.832;5.590;2024-01-30T16:39:00;4.53;;;1.40;;
29848;SDS011;16728;50.832;5.590;2024-01-30T16:42:04;5.07;;;1.40;;
29848;SDS011;16728;50.832;5.590;2024-01-30T16:45:08;6.93;;;1.90;;
29848;SDS011;16728;50.832;5.590;2024-01-30T16:48:12;3.35;;;1.27;;
29848;SDS011;16728;50.832;5.590;2024-01-30T16:51:18;7.40;;;2.58;;
29848;SDS011;16728;50.832;5.590;2024-01-30T16:54:20;8.00;;;4.05;;
29848;SDS011;16728;50.832;5.590;2024-01-30T16:57:23;7.78;;;2.50;;
29848;SDS011;16728;50.832;5.590;2024-01-30T17:00:25;5.65;;;1.45;;
29848;SDS011;16728;50.832;5.590;2024-01-30T17:03:27;9.32;;;1.20;;
29848;SDS011;16728;50.832;5.590;2024-01-30T17:06:30;5.15;;;1.33;;
29848;SDS011;16728;50.832;5.590;2024-01-30T17:09:32;6.00;;;1.60;;
29848;SDS011;16728;50.832;5.590;2024-01-30T17:12:34;3.10;;;1.63;;
29848;SDS011;16728;50.832;5.590;2024-01-30T17:15:36;5.45;;;1.00;;
29848;SDS011;16728;50.832;5.590;2024-01-30T17:18:39;3.03;;;1.40;;
29848;SDS011;16728;50.832;5.590;2024-01-30T17:21:41;2.67;;;0.80;;
29848;SDS011;16728;50.832;5.590;2024-01-30T17:24:43;2.67;;;1.02;;
29848;SDS011;16728;50.832;5.590;2024-01-30T17:27:51;4.25;;;1.23;;
29848;SDS011;16728;50.832;5.590;2024-01-30T17:30:54;4.30;;;1.02;;
29848;SDS011;16728;50.832;5.590;2024-01-30T17:33:56;5.57;;;1.20;;
29848;SDS011;16728;50.832;5.590;2024-01-30T17:36:58;2.50;;;0.90;;
29848;SDS011;16728;50.832;5.590;2024-01-30T17:40:01;4.03;;;1.43;;
29848;SDS011;16728;50.832;5.590;2024-01-30T17:43:05;4.55;;;1.20;;
29848;SDS011;16728;50.832;5.590;2024-01-30T17:46:07;3.47;;;1.63;;
29848;SDS011;16728;50.832;5.590;2024-01-30T17:49:10;5.13;;;1.30;;
29848;SDS011;16728;50.832;5.590;2024-01-30T17:52:13;4.57;;;1.60;;
29848;SDS011;16728;50.832;5.590;2024-01-30T17:55:15;4.78;;;1.70;;
29848;SDS011;16728;50.832;5.590;2024-01-30T17:58:17;3.63;;;1.60;;
29848;SDS011;16728;50.832;5.590;2024-01-30T18:01:20;4.18;;;1.60;;
29848;SDS011;16728;50.832;5.590;2024-01-30T18:04:22;7.57;;;2.27;;
29848;SDS011;16728;50.832;5.590;2024-01-30T18:07:24;4.03;;;1.67;;
29848;SDS011;16728;50.832;5.590;2024-01-30T18:10:27;6.15;;;2.00;;
29848;SDS011;16728;50.832;5.590;2024-01-30T18:13:29;6.13;;;2.20;;
29848;SDS011;16728;50.832;5.590;2024-01-30T18:16:31;2.63;;;1.80;;
29848;SDS011;16728;50.832;5.590;2024-01-30T18:19:34;4.50;;;1.90;;
29848;SDS011;16728;50.832;5.590;2024-01-30T18:22:36;9.67;;;2.10;;
29848;SDS011;16728;50.832;5.590;2024-01-30T18:25:43;3.53;;;1.77;;
29848;SDS011;16728;50.832;5.590;2024-01-30T18:28:54;2.78;;;1.75;;
29848;SDS011;16728;50.832;5.590;2024-01-30T18:31:57;4.80;;;2.05;;